Time;durP1;ratioP1;P1;durP2;ratioP2;P2;SDS_P1;SDS_P2;PMS_P1;PMS_P2;Temp;Humidity;BMP_temperature;BMP_pressure;BME280_temperature;BME280_humidity;BME280_pressure;Samples;Min_cycle;Max_cycle;Signal;HPM_P1;HPM_P2
2021/10/29 00:00:26;;;;;;;;;;;14.20;99.90;;;;;;5016431;28;20024;-77
2021/10/29 00:02:52;;;;;;;;;;;14.20;99.90;;;;;;5016307;28;19968;-77
2021/10/29 00:05:18;;;;;;;;;;;14.20;99.90;;;;;;5015785;28;19913;-78
2021/10/29 00:07:44;;;;;;;;;;;14.30;99.90;;;;;;5016375;28;20282;-77
2021/10/29 00:10:10;;;;;;;;;;;14.30;99.90;;;;;;5016024;28;20412;-78
2021/10/29 00:12:36;;;;;;;;;;;14.20;99.90;;;;;;5016348;28;19929;-77
2021/10/29 00:15:02;;;;;;;;;;;14.20;99.90;;;;;;5015967;28;19990;-78
2021/10/29 00:17:28;;;;;;;;;;;14.20;99.90;;;;;;5014813;28;19905;-78
2021/10/29 00:19:53;;;;;;;;;;;14.10;99.90;;;;;;5016022;28;19913;-78
2021/10/29 00:22:19;;;;;;;;;;;14.10;99.90;;;;;;5015951;28;19906;-76
2021/10/29 00:24:44;;;;;;;;;;;14.00;99.90;;;;;;5015972;28;19909;-77
2021/10/29 00:27:10;;;;;;;;;;;14.00;99.90;;;;;;5015966;28;19996;-77
2021/10/29 00:29:36;;;;;;;;;;;13.90;99.90;;;;;;5014488;28;20320;-76
2021/10/29 00:32:01;;;;;;;;;;;13.80;99.90;;;;;;5015813;28;19906;-77
2021/10/29 00:34:27;;;;;;;;;;;13.70;99.90;;;;;;5015577;28;19906;-76
2021/10/29 00:36:52;;;;;;;;;;;13.70;99.90;;;;;;5015656;28;20278;-78
2021/10/29 00:39:19;;;;;;;;;;;13.70;99.90;;;;;;5015528;28;20366;-76
2021/10/29 00:41:45;;;;;;;;;;;13.70;99.90;;;;;;5014317;28;20216;-77
2021/10/29 00:44:11;;;;;;;;;;;13.70;99.90;;;;;;5014278;28;20324;-77
2021/10/29 00:46:36;;;;;;;;;;;13.70;99.90;;;;;;5015835;28;19932;-77
2021/10/29 00:49:02;;;;;;;;;;;13.60;99.90;;;;;;5015635;28;20000;-77
2021/10/29 00:51:28;;;;;;;;;;;13.70;99.90;;;;;;5014197;28;19905;-78
2021/10/29 00:53:54;;;;;;;;;;;13.60;99.90;;;;;;5015377;28;19905;-78
2021/10/29 00:56:19;;;;;;;;;;;13.70;99.90;;;;;;5015517;28;19976;-77
2021/10/29 00:58:46;;;;;;;;;;;13.70;99.90;;;;;;5015445;28;19941;-77
2021/10/29 01:01:12;;;;;;;;;;;13.70;99.90;;;;;;5015368;28;19913;-76
2021/10/29 01:03:38;;;;;;;;;;;13.60;99.90;;;;;;5013931;28;19905;-77
2021/10/29 01:06:04;;;;;;;;;;;13.50;99.90;;;;;;5015161;28;19969;-77
2021/10/29 01:08:29;;;;;;;;;;;13.50;99.90;;;;;;5015251;28;19917;-78
2021/10/29 01:10:56;;;;;;;;;;;13.50;99.90;;;;;;5014900;28;20459;-78
2021/10/29 01:13:21;;;;;;;;;;;13.60;99.90;;;;;;5014952;28;19906;-77
2021/10/29 01:15:47;;;;;;;;;;;13.50;99.90;;;;;;5014960;28;20012;-76
2021/10/29 01:18:13;;;;;;;;;;;13.50;99.90;;;;;;5015118;28;20346;-76
2021/10/29 01:20:38;;;;;;;;;;;13.40;99.90;;;;;;5013552;28;19913;-76
2021/10/29 01:23:04;;;;;;;;;;;13.40;99.90;;;;;;5015028;28;19913;-77
2021/10/29 01:25:30;;;;;;;;;;;13.30;99.90;;;;;;5015005;28;19905;-78
2021/10/29 01:27:55;;;;;;;;;;;13.30;99.90;;;;;;5014852;28;19952;-77
2021/10/29 01:30:21;;;;;;;;;;;13.40;99.90;;;;;;5014763;28;20263;-77
2021/10/29 01:32:47;;;;;;;;;;;13.40;99.90;;;;;;5013401;28;19905;-77
2021/10/29 01:35:14;;;;;;;;;;;13.40;99.90;;;;;;5013242;28;19909;-78
2021/10/29 01:37:41;;;;;;;;;;;13.40;99.90;;;;;;5014620;28;19906;-77
2021/10/29 01:40:08;;;;;;;;;;;13.30;99.90;;;;;;5014488;28;19905;-76
2021/10/29 01:42:34;;;;;;;;;;;13.30;99.90;;;;;;5014549;28;19909;-78
2021/10/29 01:45:00;;;;;;;;;;;13.30;99.90;;;;;;5013220;28;20401;-78
2021/10/29 01:47:25;;;;;;;;;;;13.30;99.90;;;;;;5013134;28;19945;-77
2021/10/29 01:49:51;;;;;;;;;;;13.30;99.90;;;;;;5014948;28;20282;-78
2021/10/29 01:52:16;;;;;;;;;;;13.30;99.90;;;;;;5014978;28;19905;-78
2021/10/29 01:54:42;;;;;;;;;;;13.30;99.90;;;;;;5014264;28;19917;-77
2021/10/29 01:57:08;;;;;;;;;;;13.30;99.90;;;;;;5014256;28;19988;-77
2021/10/29 01:59:33;;;;;;;;;;;13.30;99.90;;;;;;5014205;28;19906;-78
2021/10/29 02:01:59;;;;;;;;;;;13.20;99.90;;;;;;5014218;28;20259;-77
2021/10/29 02:04:25;;;;;;;;;;;13.30;99.90;;;;;;5014494;28;19914;-77
2021/10/29 02:06:50;;;;;;;;;;;13.20;99.90;;;;;;5014164;28;19905;-77
2021/10/29 02:09:16;;;;;;;;;;;13.20;99.90;;;;;;5012607;28;19917;-78
2021/10/29 02:11:42;;;;;;;;;;;13.30;99.90;;;;;;5014041;28;19995;-77
2021/10/29 02:14:07;;;;;;;;;;;13.30;99.90;;;;;;5014072;28;20004;-77
2021/10/29 02:16:33;;;;;;;;;;;13.30;99.90;;;;;;5013917;28;19945;-77
2021/10/29 02:19:00;;;;;;;;;;;13.30;99.90;;;;;;5014057;28;19928;-78
2021/10/29 02:21:28;;;;;;;;;;;13.40;99.90;;;;;;5013986;28;19905;-77
2021/10/29 02:23:53;;;;;;;;;;;13.40;99.90;;;;;;5014406;28;20000;-77
2021/10/29 02:26:19;;;;;;;;;;;13.50;99.90;;;;;;5013857;28;20408;-77
2021/10/29 02:28:45;;;;;;;;;;;13.50;99.90;;;;;;5012138;28;19932;-77
2021/10/29 02:31:10;;;;;;;;;;;13.50;99.90;;;;;;5013870;28;19905;-77
2021/10/29 02:33:36;;;;;;;;;;;13.50;99.90;;;;;;5014350;28;20301;-77
2021/10/29 02:36:02;;;;;;;;;;;13.50;99.90;;;;;;5013762;28;20407;-75
2021/10/29 02:38:28;;;;;;;;;;;13.40;99.90;;;;;;5013687;28;20054;-76
2021/10/29 02:40:53;;;;;;;;;;;13.40;99.90;;;;;;5012464;28;19964;-77
2021/10/29 02:43:19;;;;;;;;;;;13.40;99.90;;;;;;5012448;28;19956;-78
2021/10/29 02:45:45;;;;;;;;;;;13.40;99.90;;;;;;5013701;28;19975;-77
2021/10/29 02:48:11;;;;;;;;;;;13.30;99.90;;;;;;5014086;28;19912;-76
2021/10/29 02:50:37;;;;;;;;;;;13.40;99.90;;;;;;5013932;28;19905;-78
2021/10/29 02:53:07;;;;;;;;;;;13.40;99.90;;;;;;5012301;28;20384;-77
2021/10/29 02:55:33;;;;;;;;;;;13.40;99.90;;;;;;5013612;28;19916;-77
2021/10/29 02:57:59;;;;;;;;;;;13.40;99.90;;;;;;5013471;28;19988;-78
2021/10/29 03:00:25;;;;;;;;;;;13.30;99.90;;;;;;5013915;28;19917;-77
2021/10/29 03:02:50;;;;;;;;;;;13.30;99.90;;;;;;5012260;28;20326;-77
2021/10/29 03:05:16;;;;;;;;;;;13.30;99.90;;;;;;5013652;28;20000;-76
2021/10/29 03:07:42;;;;;;;;;;;13.30;99.90;;;;;;5013465;28;19906;-76
2021/10/29 03:10:08;;;;;;;;;;;13.40;99.90;;;;;;5012001;28;19924;-76
2021/10/29 03:12:34;;;;;;;;;;;13.30;99.90;;;;;;5013869;28;19917;-76
2021/10/29 03:15:00;;;;;;;;;;;13.40;99.90;;;;;;5013588;28;20251;-76
2021/10/29 03:17:26;;;;;;;;;;;13.40;99.90;;;;;;5012095;28;19920;-76
2021/10/29 03:19:51;;;;;;;;;;;13.40;99.90;;;;;;5013365;28;20358;-76
2021/10/29 03:22:17;;;;;;;;;;;13.40;99.90;;;;;;5013515;28;19906;-76
2021/10/29 03:24:43;;;;;;;;;;;13.40;99.90;;;;;;5013569;28;19912;-76
2021/10/29 03:27:09;;;;;;;;;;;13.40;99.90;;;;;;5013533;28;20394;-77
2021/10/29 03:29:34;;;;;;;;;;;13.40;99.90;;;;;;5013340;28;19909;-76
2021/10/29 03:32:00;;;;;;;;;;;13.50;99.90;;;;;;5013393;28;19906;-76
2021/10/29 03:34:26;;;;;;;;;;;13.50;99.90;;;;;;5013300;28;20277;-76
2021/10/29 03:36:51;;;;;;;;;;;13.50;99.90;;;;;;5013654;28;20285;-76
2021/10/29 03:39:29;;;;;;;;;;;13.50;99.90;;;;;;5013472;28;19992;-76
2021/10/29 03:42:01;;;;;;;;;;;13.60;99.90;;;;;;5014213;28;19913;-76
2021/10/29 03:46:57;;;;;;;;;;;13.50;99.90;;;;;;5016949;28;19973;-78
2021/10/29 03:50:15;;;;;;;;;;;13.60;99.90;;;;;;5016642;28;19905;-79
2021/10/29 03:52:25;;;;;;;;;;;13.50;99.90;;;;;;5019215;28;20290;-79
2021/10/29 03:54:55;;;;;;;;;;;13.60;99.90;;;;;;5014912;28;19996;-79
2021/10/29 03:57:25;;;;;;;;;;;13.60;99.90;;;;;;5015011;28;19906;-79
2021/10/29 03:59:51;;;;;;;;;;;13.60;99.90;;;;;;5016536;28;20350;-80
2021/10/29 04:02:17;;;;;;;;;;;13.60;99.90;;;;;;5016403;28;19929;-80
2021/10/29 04:04:42;;;;;;;;;;;13.60;99.90;;;;;;5016339;28;20362;-80
2021/10/29 04:07:08;;;;;;;;;;;13.50;99.90;;;;;;5016399;28;19917;-79
2021/10/29 04:09:33;;;;;;;;;;;13.60;99.90;;;;;;5014767;28;19927;-78
2021/10/29 04:11:59;;;;;;;;;;;13.60;99.90;;;;;;5014933;28;19956;-79
2021/10/29 04:14:28;;;;;;;;;;;13.60;99.90;;;;;;5016181;28;20400;-78
2021/10/29 04:16:54;;;;;;;;;;;13.60;99.90;;;;;;5016044;28;19910;-78
2021/10/29 04:19:20;;;;;;;;;;;13.70;99.90;;;;;;5016185;28;19970;-78
2021/10/29 04:21:45;;;;;;;;;;;13.70;99.90;;;;;;5016034;28;19910;-78
2021/10/29 04:24:11;;;;;;;;;;;13.80;99.90;;;;;;5015963;28;19913;-79
2021/10/29 04:26:38;;;;;;;;;;;13.80;99.90;;;;;;5015881;28;20040;-78
2021/10/29 04:29:14;;;;;;;;;;;13.80;99.90;;;;;;5014675;28;19963;-78
2021/10/29 04:31:49;;;;;;;;;;;13.80;99.90;;;;;;5015983;28;19912;-78
2021/10/29 04:34:23;;;;;;;;;;;13.80;99.90;;;;;;5016403;28;20380;-78
2021/10/29 04:36:50;;;;;;;;;;;13.80;99.90;;;;;;5015679;28;20384;-78
2021/10/29 04:39:16;;;;;;;;;;;13.80;99.90;;;;;;5015640;28;20325;-80
2021/10/29 04:41:42;;;;;;;;;;;13.80;99.90;;;;;;5015633;28;19906;-82
2021/10/29 04:44:08;;;;;;;;;;;13.70;99.90;;;;;;5015987;28;19905;-81
2021/10/29 04:46:34;;;;;;;;;;;13.60;99.90;;;;;;5014299;28;19997;-82
2021/10/29 04:48:59;;;;;;;;;;;13.60;99.90;;;;;;5016054;28;19959;-82
2021/10/29 04:51:25;;;;;;;;;;;13.60;99.90;;;;;;5013906;28;19909;-81
2021/10/29 04:53:51;;;;;;;;;;;13.60;99.90;;;;;;5015435;28;19945;-82
2021/10/29 04:56:16;;;;;;;;;;;13.60;99.90;;;;;;5015334;28;19909;-80
2021/10/29 04:58:42;;;;;;;;;;;13.60;99.90;;;;;;5015486;28;20289;-82
2021/10/29 05:01:08;;;;;;;;;;;13.70;99.90;;;;;;5014019;28;19905;-81
2021/10/29 05:03:33;;;;;;;;;;;13.60;99.90;;;;;;5013977;28;20273;-81
2021/10/29 05:05:59;;;;;;;;;;;13.60;99.90;;;;;;5015262;28;19905;-81
2021/10/29 05:08:24;;;;;;;;;;;13.60;99.90;;;;;;5015211;28;20419;-81
2021/10/29 05:10:50;;;;;;;;;;;13.50;99.90;;;;;;5014652;28;20044;-81
2021/10/29 05:13:16;;;;;;;;;;;13.40;99.90;;;;;;5013858;28;19905;-80
2021/10/29 05:15:42;;;;;;;;;;;13.40;99.90;;;;;;5015048;28;19916;-79
2021/10/29 05:18:13;;;;;;;;;;;13.30;99.90;;;;;;5013738;28;19905;-79
2021/10/29 05:20:39;;;;;;;;;;;13.20;99.90;;;;;;5015455;28;19912;-80
2021/10/29 05:23:04;;;;;;;;;;;13.10;99.90;;;;;;5015043;28;19999;-79
2021/10/29 05:25:30;;;;;;;;;;;13.10;99.90;;;;;;5014775;28;20358;-78
2021/10/29 05:27:55;;;;;;;;;;;13.10;99.90;;;;;;5013510;28;19909;-79
2021/10/29 05:30:21;;;;;;;;;;;13.00;99.90;;;;;;5014771;28;19906;-79
2021/10/29 05:32:47;;;;;;;;;;;13.00;99.90;;;;;;5014918;28;19905;-78
2021/10/29 05:35:12;;;;;;;;;;;13.00;99.90;;;;;;5013147;28;20396;-78
2021/10/29 05:37:38;;;;;;;;;;;13.00;99.90;;;;;;5014588;28;19905;-77
2021/10/29 05:40:05;;;;;;;;;;;13.00;99.90;;;;;;5013197;28;20366;-78
2021/10/29 05:42:30;;;;;;;;;;;12.90;99.90;;;;;;5014559;28;19906;-79
2021/10/29 05:44:56;;;;;;;;;;;12.80;99.90;;;;;;5014490;28;19913;-79
2021/10/29 05:47:21;;;;;;;;;;;12.80;99.90;;;;;;5014530;28;20254;-78
2021/10/29 05:49:48;;;;;;;;;;;12.80;99.90;;;;;;5013209;28;19906;-79
2021/10/29 05:52:21;;;;;;;;;;;12.70;99.90;;;;;;5014376;28;19905;-79
2021/10/29 05:55:30;;;;;;;;;;;12.80;99.90;;;;;;5014449;28;19911;-78
2021/10/29 05:57:36;;;;;;;;;;;12.70;99.90;;;;;;5018948;28;19909;-79
2021/10/29 06:00:02;;;;;;;;;;;12.70;99.90;;;;;;5014568;28;19905;-79
2021/10/29 06:02:28;;;;;;;;;;;12.70;99.90;;;;;;5014548;28;19963;-79
2021/10/29 06:04:54;;;;;;;;;;;12.70;99.90;;;;;;5013920;28;19909;-78
2021/10/29 06:07:19;;;;;;;;;;;12.70;99.90;;;;;;5014409;28;19931;-79
2021/10/29 06:09:45;;;;;;;;;;;12.70;99.90;;;;;;5014126;28;19921;-77
2021/10/29 06:12:11;;;;;;;;;;;12.70;99.90;;;;;;5014694;28;19943;-78
2021/10/29 06:14:37;;;;;;;;;;;12.70;99.90;;;;;;5012846;28;19913;-78
2021/10/29 06:17:06;;;;;;;;;;;12.70;99.90;;;;;;5014399;28;19905;-78
2021/10/29 06:19:32;;;;;;;;;;;12.60;99.90;;;;;;5014235;28;20008;-78
2021/10/29 06:24:25;;;;;;;;;;;12.70;99.90;;;;;;5013989;28;20374;-79
2021/10/29 06:26:57;;;;;;;;;;;12.70;99.90;;;;;;5014106;28;19960;-79
2021/10/29 06:29:24;;;;;;;;;;;12.70;99.90;;;;;;5013425;28;20358;-79
2021/10/29 06:31:49;;;;;;;;;;;12.70;99.90;;;;;;5012769;28;19905;-78
2021/10/29 06:34:15;;;;;;;;;;;12.70;99.90;;;;;;5013871;28;20052;-78
2021/10/29 06:36:41;;;;;;;;;;;12.80;99.90;;;;;;5013503;28;19910;-78
2021/10/29 06:39:08;;;;;;;;;;;12.80;99.90;;;;;;5011365;28;20439;-78
2021/10/29 06:41:34;;;;;;;;;;;12.80;99.90;;;;;;5012928;28;20247;-78
2021/10/29 06:46:35;;;;;;;;;;;12.80;99.90;;;;;;5013202;28;19909;-79
2021/10/29 07:40:18;;;;;;;;;;;13.50;99.90;;;;;;5017128;28;20424;-79
2021/10/29 07:43:01;;;;;;;;;;;13.50;99.90;;;;;;5016898;28;19905;-79
2021/10/29 07:45:27;;;;;;;;;;;13.60;99.90;;;;;;5017525;28;20314;-77
2021/10/29 07:47:54;;;;;;;;;;;13.60;99.90;;;;;;5016717;28;19912;-78
2021/10/29 07:50:20;;;;;;;;;;;13.60;99.90;;;;;;5016725;28;20362;-78
2021/10/29 07:52:47;;;;;;;;;;;13.70;99.90;;;;;;5016584;28;19916;-77
2021/10/29 07:55:13;;;;;;;;;;;13.80;99.90;;;;;;5016643;28;20366;-78
2021/10/29 07:57:40;;;;;;;;;;;13.90;99.90;;;;;;5016793;28;19905;-79
2021/10/29 08:00:07;;;;;;;;;;;14.00;99.90;;;;;;5016434;28;19939;-79
2021/10/29 08:02:33;;;;;;;;;;;14.30;99.90;;;;;;5016488;28;20318;-78
2021/10/29 08:04:59;;;;;;;;;;;14.50;99.90;;;;;;5016556;28;19939;-78
2021/10/29 08:07:27;;;;;;;;;;;14.90;99.90;;;;;;5016503;28;19905;-78
2021/10/29 08:09:53;;;;;;;;;;;15.60;99.90;;;;;;5016428;28;19932;-77
2021/10/29 08:12:19;;;;;;;;;;;16.00;99.90;;;;;;5015081;28;19996;-79
2021/10/29 08:14:46;;;;;;;;;;;16.20;99.90;;;;;;5016835;28;19912;-77
2021/10/29 08:17:12;;;;;;;;;;;16.50;99.90;;;;;;5016687;28;19906;-78
2021/10/29 08:19:38;;;;;;;;;;;17.30;99.90;;;;;;5016536;28;19965;-79
2021/10/29 08:22:05;;;;;;;;;;;17.80;99.90;;;;;;5016662;28;19905;-80
2021/10/29 08:24:33;;;;;;;;;;;19.00;99.90;;;;;;5016859;28;19912;-79
2021/10/29 08:26:58;;;;;;;;;;;19.40;99.90;;;;;;5014649;28;19909;-78
2021/10/29 08:29:27;;;;;;;;;;;18.30;99.90;;;;;;5015181;28;20273;-79
2021/10/29 08:31:53;;;;;;;;;;;17.20;99.90;;;;;;5015590;28;19913;-79
2021/10/29 08:34:20;;;;;;;;;;;16.30;99.90;;;;;;5015319;28;19948;-78
2021/10/29 08:36:46;;;;;;;;;;;16.10;99.90;;;;;;5015249;28;20330;-77
2021/10/29 08:39:13;;;;;;;;;;;15.80;99.90;;;;;;5014790;28;19948;-79
2021/10/29 08:41:40;;;;;;;;;;;15.30;99.90;;;;;;5016320;28;19906;-77
2021/10/29 08:44:06;;;;;;;;;;;15.30;99.90;;;;;;5014783;28;19975;-79
2021/10/29 08:46:33;;;;;;;;;;;15.10;99.90;;;;;;5014485;28;20367;-77
2021/10/29 08:48:59;;;;;;;;;;;15.00;99.90;;;;;;5015973;28;20396;-78
2021/10/29 08:51:25;;;;;;;;;;;14.90;99.90;;;;;;5016118;28;20350;-77
2021/10/29 08:53:55;;;;;;;;;;;14.70;99.90;;;;;;5015903;28;19909;-78
2021/10/29 08:56:25;;;;;;;;;;;14.30;99.90;;;;;;5015491;28;19909;-77
2021/10/29 08:59:10;;;;;;;;;;;14.00;99.90;;;;;;5014246;28;19909;-77
2021/10/29 09:01:49;;;;;;;;;;;13.90;99.90;;;;;;5015495;28;19932;-77
2021/10/29 09:04:16;;;;;;;;;;;13.70;99.90;;;;;;5015302;28;19960;-77
2021/10/29 09:06:55;;;;;;;;;;;13.60;99.90;;;;;;5015307;28;20282;-77
2021/10/29 09:32:26;;;;;;;;;;;16.00;99.90;;;;;;5014871;28;20381;-77
2021/10/29 09:35:02;;;;;;;;;;;18.10;99.90;;;;;;5015019;28;20278;-78
2021/10/29 09:37:39;;;;;;;;;;;19.80;99.90;;;;;;5014569;28;19912;-77
2021/10/29 09:40:08;;;;;;;;;;;20.10;99.40;;;;;;5014113;28;19905;-78
2021/10/29 09:42:36;;;;;;;;;;;21.60;94.80;;;;;;5014563;28;20303;-77
2021/10/29 09:45:23;;;;;;;;;;;22.30;92.60;;;;;;5014532;28;20355;-79
2021/10/29 09:47:55;;;;;;;;;;;21.90;90.60;;;;;;5013138;28;19906;-78
2021/10/29 09:50:26;;;;;;;;;;;21.90;87.40;;;;;;5014539;28;19905;-79
2021/10/29 09:55:50;;;;;;;;;;;21.10;86.80;;;;;;5014011;28;19909;-78
2021/10/29 09:58:17;;;;;;;;;;;21.00;90.20;;;;;;5014221;28;19913;-78
2021/10/29 10:00:43;;;;;;;;;;;21.90;85.70;;;;;;5014267;28;19905;-79
2021/10/29 10:03:09;;;;;;;;;;;21.90;82.90;;;;;;5012971;28;20384;-78
2021/10/29 10:05:36;;;;;;;;;;;21.10;87.60;;;;;;5013004;28;19917;-78
2021/10/29 10:08:02;;;;;;;;;;;21.00;88.60;;;;;;5014210;28;19905;-78
2021/10/29 10:10:28;;;;;;;;;;;20.80;85.90;;;;;;5014008;28;20004;-79
2021/10/29 10:12:57;;;;;;;;;;;20.70;87.10;;;;;;5014148;28;20258;-78
2021/10/29 10:15:22;;;;;;;;;;;20.70;85.80;;;;;;5012784;28;19996;-77
2021/10/29 10:17:50;;;;;;;;;;;20.20;87.70;;;;;;5012804;28;19944;-77
2021/10/29 10:20:17;;;;;;;;;;;20.30;89.10;;;;;;5012768;28;19909;-77
2021/10/29 10:22:47;;;;;;;;;;;19.50;89.80;;;;;;5014048;28;19905;-77
2021/10/29 10:47:01;;;;;;;;;;;25.20;72.10;;;;;;5013760;28;19906;-79
2021/10/29 10:49:50;;;;;;;;;;;25.90;67.10;;;;;;5014097;28;19905;-78
2021/10/29 10:54:49;;;;;;;;;;;26.30;63.50;;;;;;5030597;28;19958;-78
2021/10/29 11:10:42;;;;;;;;;;;29.30;55.70;;;;;;5033704;28;19916;-79
2021/10/29 11:13:09;;;;;;;;;;;28.50;54.00;;;;;;5036474;28;19909;-77
2021/10/29 11:15:36;;;;;;;;;;;28.10;56.50;;;;;;5036255;28;20004;-78
2021/10/29 11:18:17;;;;;;;;;;;27.50;56.40;;;;;;5036454;28;20456;-79
2021/10/29 11:20:48;;;;;;;;;;;25.30;60.40;;;;;;5034251;28;19905;-77
2021/10/29 11:23:18;;;;;;;;;;;22.30;65.40;;;;;;5036214;28;19963;-77
2021/10/29 11:25:49;;;;;;;;;;;23.50;66.50;;;;;;5036197;28;20000;-78
2021/10/29 11:28:15;;;;;;;;;;;22.90;66.00;;;;;;5035044;28;20309;-78
2021/10/29 11:30:42;;;;;;;;;;;22.20;66.90;;;;;;5036855;28;19920;-77
2021/10/29 11:33:08;;;;;;;;;;;21.20;67.60;;;;;;5036721;28;19928;-78
2021/10/29 11:35:34;;;;;;;;;;;23.70;67.60;;;;;;5036622;28;20366;-77
2021/10/29 11:38:00;;;;;;;;;;;25.00;60.40;;;;;;5035303;28;19908;-78
2021/10/29 11:40:26;;;;;;;;;;;22.60;65.30;;;;;;5035361;28;20012;-78
2021/10/29 11:42:53;;;;;;;;;;;26.60;63.10;;;;;;5035273;28;19905;-78
2021/10/29 11:45:28;;;;;;;;;;;26.70;58.10;;;;;;5036728;28;19905;-77
2021/10/29 11:47:55;;;;;;;;;;;24.50;61.00;;;;;;5034944;28;19905;-78
2021/10/29 11:50:23;;;;;;;;;;;22.70;65.90;;;;;;5037019;28;19912;-78
2021/10/29 11:52:49;;;;;;;;;;;24.30;63.00;;;;;;5036420;28;19983;-77
2021/10/29 11:55:44;;;;;;;;;;;24.40;62.40;;;;;;5036701;28;20480;-77
2021/10/29 11:58:22;;;;;;;;;;;25.50;60.40;;;;;;5036573;28;19912;-77
2021/10/29 12:09:04;;;;;;;;;;;22.40;64.10;;;;;;5035702;28;20324;-78
2021/10/29 12:11:31;;;;;;;;;;;22.10;63.40;;;;;;5036296;28;20331;-76
2021/10/29 12:14:01;;;;;;;;;;;21.60;64.80;;;;;;5036305;28;19932;-77
2021/10/29 12:16:28;;;;;;;;;;;21.30;66.70;;;;;;5035892;28;19955;-77
2021/10/29 12:18:58;;;;;;;;;;;22.90;64.40;;;;;;5034689;28;20347;-78
2021/10/29 12:21:28;;;;;;;;;;;22.30;63.50;;;;;;5036463;28;19956;-78
2021/10/29 12:23:53;;;;;;;;;;;22.00;66.70;;;;;;5034542;28;19909;-78
2021/10/29 12:26:22;;;;;;;;;;;21.60;66.70;;;;;;5034454;28;19905;-77
2021/10/29 12:28:49;;;;;;;;;;;21.20;68.30;;;;;;5036068;28;19905;-76
2021/10/29 12:39:20;;;;;;;;;;;22.50;66.00;;;;;;5035656;28;19959;-78
2021/10/29 13:03:43;;;;;;;;;;;23.40;61.60;;;;;;5035047;28;19912;-78
2021/10/29 13:06:12;;;;;;;;;;;23.50;62.10;;;;;;5035322;28;19905;-77
2021/10/29 13:08:39;;;;;;;;;;;23.80;60.30;;;;;;5034850;28;19909;-77
2021/10/29 13:11:06;;;;;;;;;;;24.10;57.60;;;;;;5034577;28;19921;-77
2021/10/29 13:16:03;;;;;;;;;;;23.20;59.30;;;;;;5035036;28;19915;-77
2021/10/29 13:18:40;;;;;;;;;;;23.30;60.10;;;;;;5034747;28;20015;-78
2021/10/29 13:34:12;;;;;;;;;;;24.10;58.70;;;;;;5034548;28;19905;-78
2021/10/29 13:56:09;;;;;;;;;;;29.40;49.60;;;;;;5034249;28;20373;-78
2021/10/29 14:28:38;;;;;;;;;;;27.30;50.50;;;;;;5033452;28;19912;-78
2021/10/29 14:31:10;;;;;;;;;;;26.00;51.80;;;;;;5032167;28;20373;-79
2021/10/29 14:33:42;;;;;;;;;;;26.80;52.90;;;;;;5033777;28;19905;-78
2021/10/29 14:36:10;;;;;;;;;;;26.20;51.80;;;;;;5034026;28;20250;-78
2021/10/29 14:39:22;;;;;;;;;;;23.20;58.90;;;;;;5033547;28;20392;-77
2021/10/29 14:41:37;;;;;;;;;;;22.10;61.10;;;;;;5033046;28;19905;-77
2021/10/29 14:44:10;;;;;;;;;;;20.30;65.20;;;;;;5032013;28;19905;-79
2021/10/29 14:52:05;;;;;;;;;;;20.60;67.10;;;;;;5033415;28;19905;-79
2021/10/29 15:02:51;;;;;;;;;;;25.20;56.10;;;;;;5033974;28;19956;-77
2021/10/29 15:27:21;;;;;;;;;;;22.40;59.80;;;;;;5032887;28;19905;-78
2021/10/29 15:32:35;;;;;;;;;;;23.00;60.20;;;;;;5032844;28;19905;-77
2021/10/29 15:46:35;;;;;;;;;;;22.10;60.30;;;;;;5036328;28;19904;-77
2021/10/29 15:51:34;;;;;;;;;;;21.90;59.40;;;;;;5035443;28;19905;-77
2021/10/29 15:54:02;;;;;;;;;;;22.00;59.20;;;;;;5036445;28;19905;-78
2021/10/29 15:56:50;;;;;;;;;;;21.10;60.00;;;;;;5035020;28;19909;-78
2021/10/29 16:01:49;;;;;;;;;;;21.30;60.50;;;;;;5036194;28;19952;-77
2021/10/29 16:17:56;;;;;;;;;;;20.90;63.20;;;;;;5034754;28;20456;-78
2021/10/29 16:20:22;;;;;;;;;;;19.80;65.20;;;;;;5035954;28;19940;-78
2021/10/29 16:22:49;;;;;;;;;;;19.30;65.50;;;;;;5035870;28;19905;-77
2021/10/29 16:25:18;;;;;;;;;;;19.20;67.40;;;;;;5035859;28;19906;-76
2021/10/29 16:30:09;;;;;;;;;;;18.10;70.60;;;;;;5035762;28;19959;-78
2021/10/29 16:35:20;;;;;;;;;;;18.00;70.40;;;;;;5035432;28;19959;-78
2021/10/29 16:37:46;;;;;;;;;;;18.00;70.90;;;;;;5035568;28;19911;-77
2021/10/29 16:40:13;;;;;;;;;;;17.80;71.20;;;;;;5034179;28;19955;-78
2021/10/29 16:42:38;;;;;;;;;;;17.80;71.90;;;;;;5035697;28;19952;-79
2021/10/29 16:45:07;;;;;;;;;;;16.90;74.70;;;;;;5035747;28;19905;-77
2021/10/29 16:47:33;;;;;;;;;;;16.50;75.90;;;;;;5035129;28;19905;-78
2021/10/29 16:49:59;;;;;;;;;;;16.60;76.40;;;;;;5035465;28;19928;-78
2021/10/29 16:52:27;;;;;;;;;;;16.20;77.30;;;;;;5035337;28;19905;-78
2021/10/29 16:54:53;;;;;;;;;;;15.80;78.60;;;;;;5034013;28;19905;-77
2021/10/29 16:57:19;;;;;;;;;;;15.60;80.10;;;;;;5035401;28;19909;-77
2021/10/29 16:59:45;;;;;;;;;;;15.30;82.00;;;;;;5035421;28;19904;-78
2021/10/29 17:02:12;;;;;;;;;;;15.30;82.00;;;;;;5035244;28;19920;-78
2021/10/29 17:04:38;;;;;;;;;;;15.20;83.50;;;;;;5035051;28;19943;-77
2021/10/29 17:07:04;;;;;;;;;;;15.10;84.20;;;;;;5035191;28;20355;-77
2021/10/29 17:09:29;;;;;;;;;;;15.10;84.90;;;;;;5034732;28;19948;-76
2021/10/29 17:11:55;;;;;;;;;;;14.90;86.50;;;;;;5035149;28;19955;-78
2021/10/29 17:14:21;;;;;;;;;;;14.80;87.50;;;;;;5034843;28;19905;-78
2021/10/29 17:16:47;;;;;;;;;;;14.70;89.30;;;;;;5034947;28;19920;-77
2021/10/29 17:19:13;;;;;;;;;;;14.70;90.20;;;;;;5034973;28;19904;-77
2021/10/29 17:21:38;;;;;;;;;;;14.50;90.70;;;;;;5034737;28;20393;-78
2021/10/29 17:24:04;;;;;;;;;;;14.40;91.70;;;;;;5034675;28;20415;-77
2021/10/29 17:26:31;;;;;;;;;;;14.40;92.00;;;;;;5034648;28;19905;-78
2021/10/29 17:28:57;;;;;;;;;;;14.40;92.60;;;;;;5034631;28;19905;-77
2021/10/29 17:31:23;;;;;;;;;;;14.30;92.90;;;;;;5034760;28;19905;-78
2021/10/29 17:33:48;;;;;;;;;;;14.30;93.20;;;;;;5034553;28;19905;-78
2021/10/29 17:36:14;;;;;;;;;;;14.30;93.50;;;;;;5033203;28;19944;-76
2021/10/29 17:38:40;;;;;;;;;;;14.10;94.20;;;;;;5034449;28;19940;-78
2021/10/29 17:41:06;;;;;;;;;;;14.00;94.70;;;;;;5033165;28;19905;-77
2021/10/29 17:43:31;;;;;;;;;;;14.00;95.50;;;;;;5034418;28;19913;-78
2021/10/29 17:45:57;;;;;;;;;;;13.90;96.00;;;;;;5034361;28;20281;-78
2021/10/29 17:48:23;;;;;;;;;;;13.90;96.30;;;;;;5034296;28;19940;-78
2021/10/29 17:50:49;;;;;;;;;;;13.90;96.90;;;;;;5034215;28;19905;-77
2021/10/29 17:53:14;;;;;;;;;;;13.80;97.20;;;;;;5032950;28;19905;-77
2021/10/29 17:55:40;;;;;;;;;;;13.90;97.30;;;;;;5034117;28;19909;-76
2021/10/29 17:58:06;;;;;;;;;;;13.80;97.60;;;;;;5034137;28;19955;-77
2021/10/29 18:00:32;;;;;;;;;;;13.70;98.00;;;;;;5033562;28;19953;-78
2021/10/29 18:02:58;;;;;;;;;;;13.80;98.20;;;;;;5034258;28;19955;-78
2021/10/29 18:05:23;;;;;;;;;;;13.70;98.30;;;;;;5034360;28;20344;-77
2021/10/29 18:07:57;;;;;;;;;;;13.70;98.40;;;;;;5034024;28;19912;-77
2021/10/29 18:10:23;;;;;;;;;;;13.80;98.60;;;;;;5032390;28;19924;-76
2021/10/29 18:12:49;;;;;;;;;;;13.60;99.20;;;;;;5034073;28;19904;-77
2021/10/29 18:15:14;;;;;;;;;;;13.70;99.00;;;;;;5033922;28;19948;-78
2021/10/29 18:17:40;;;;;;;;;;;13.60;99.30;;;;;;5033933;28;20424;-77
2021/10/29 18:20:06;;;;;;;;;;;13.60;99.40;;;;;;5032559;28;20510;-77
2021/10/29 18:22:32;;;;;;;;;;;13.60;99.60;;;;;;5033999;28;19992;-78
2021/10/29 18:24:57;;;;;;;;;;;13.50;99.90;;;;;;5033741;28;19909;-77
2021/10/29 18:27:25;;;;;;;;;;;13.60;99.90;;;;;;5033909;28;20350;-77
2021/10/29 18:29:55;;;;;;;;;;;13.60;99.80;;;;;;5033869;28;19937;-77
2021/10/29 18:32:21;;;;;;;;;;;13.50;99.90;;;;;;5032399;28;19905;-77
2021/10/29 18:34:51;;;;;;;;;;;13.40;99.90;;;;;;5032350;28;19909;-77
2021/10/29 18:37:19;;;;;;;;;;;13.30;99.90;;;;;;5033672;28;19958;-78
2021/10/29 18:39:45;;;;;;;;;;;13.30;99.90;;;;;;5033549;28;20273;-78
2021/10/29 18:42:11;;;;;;;;;;;13.30;99.90;;;;;;5032280;28;19912;-78
2021/10/29 18:44:37;;;;;;;;;;;13.30;99.90;;;;;;5033529;28;19905;-78
2021/10/29 18:47:03;;;;;;;;;;;13.20;99.90;;;;;;5033558;28;19905;-77
2021/10/29 18:49:29;;;;;;;;;;;13.10;99.90;;;;;;5032306;28;19912;-76
2021/10/29 18:51:55;;;;;;;;;;;13.00;99.90;;;;;;5032220;28;19905;-77
2021/10/29 18:54:21;;;;;;;;;;;13.00;99.90;;;;;;5033446;28;19905;-78
2021/10/29 18:56:48;;;;;;;;;;;12.90;99.90;;;;;;5033632;28;20324;-78
2021/10/29 18:59:14;;;;;;;;;;;13.00;99.90;;;;;;5033420;28;19955;-77
2021/10/29 19:01:40;;;;;;;;;;;13.00;99.90;;;;;;5033472;28;19905;-77
2021/10/29 19:04:06;;;;;;;;;;;12.80;99.90;;;;;;5033400;28;19952;-78
2021/10/29 19:06:31;;;;;;;;;;;12.90;99.90;;;;;;5032031;28;19912;-77
2021/10/29 19:08:57;;;;;;;;;;;12.80;99.90;;;;;;5033287;28;20011;-77
2021/10/29 19:11:32;;;;;;;;;;;12.80;99.90;;;;;;5033639;28;19909;-76
2021/10/29 19:13:58;;;;;;;;;;;12.70;99.90;;;;;;5037228;28;20392;-78
2021/10/29 19:16:24;;;;;;;;;;;12.70;99.90;;;;;;5037435;28;19909;-77